Cabimas, Venezuela
Current Conditions -  °F | °C
As of 2:00 PM on Tuesday 21 Oct 2014 (Local Time) from SKVP Reporting Station
Scattered Clouds Scattered Clouds  
Wind Chill: 90°   Ceiling: Unl
Heat Index: 98°   Visibility: 6mi
Dew Point: 73°   Wind: 5mph
Humidity: 59%   Direction: 210°SSW
Pressure: 29.85"   Gusts: NA
Location:  10.43°N, 71.45°W
Report Text: SKVP 211800Z 21004KT 9999 SCT015TCU SCT200 32/23 A2985 RMK TCU/SE
Loading
Personal Weather Stations






























Interactive Weather Map New forecast layout! Learn more

10-Day Weather Forecast

Advertisements
Track Severe Weather on mobile